createdAt,value
2018-01-15T00:02:24.286Z,24.93
2018-01-15T00:04:50.051Z,30.33
2018-01-15T00:07:15.802Z,26.93
2018-01-15T00:09:41.551Z,28.10
2018-01-15T00:12:07.314Z,29.07
2018-01-15T00:14:33.071Z,28.57
2018-01-15T00:16:58.843Z,28.77
2018-01-15T00:19:24.610Z,27.67
2018-01-15T00:21:50.375Z,29.20
2018-01-15T00:24:16.126Z,28.20
2018-01-15T00:26:41.891Z,29.23
2018-01-15T00:29:07.647Z,28.03
2018-01-15T00:31:33.406Z,30.07
2018-01-15T00:33:59.159Z,28.53
2018-01-15T00:36:24.926Z,28.13
2018-01-15T00:38:50.684Z,29.50
2018-01-15T00:41:16.458Z,29.93
2018-01-15T00:43:42.220Z,28.27
2018-01-15T00:46:07.974Z,27.27
2018-01-15T00:48:33.741Z,28.40
2018-01-15T00:50:59.511Z,28.40
2018-01-15T00:53:25.259Z,26.97
2018-01-15T00:55:51.018Z,29.73
2018-01-15T00:58:16.787Z,29.00
2018-01-15T01:00:42.530Z,26.90
2018-01-15T01:03:08.301Z,25.87
2018-01-15T01:05:34.055Z,27.27
2018-01-15T01:07:59.817Z,26.73
2018-01-15T01:10:25.583Z,26.60
2018-01-15T01:12:51.342Z,29.10
2018-01-15T01:15:17.094Z,27.60
2018-01-15T01:17:42.864Z,33.07
2018-01-15T01:20:08.615Z,28.77
2018-01-15T01:22:34.376Z,30.47
2018-01-15T01:25:00.126Z,30.80
2018-01-15T01:27:25.895Z,28.93
2018-01-15T01:29:51.657Z,29.57
2018-01-15T01:32:17.409Z,29.73
2018-01-15T01:34:43.174Z,29.50
2018-01-15T01:37:08.922Z,31.43
2018-01-15T01:39:34.690Z,32.33
2018-01-15T01:42:00.455Z,29.43
2018-01-15T01:44:26.218Z,30.23
2018-01-15T01:46:51.978Z,30.63
2018-01-15T01:49:17.757Z,30.03
2018-01-15T01:51:43.518Z,27.93
2018-01-15T01:54:09.275Z,29.50
2018-01-15T01:56:35.026Z,27.20
2018-01-15T01:59:00.795Z,28.30
2018-01-15T02:01:26.539Z,29.63
2018-01-15T02:03:52.303Z,25.53
2018-01-15T02:06:18.051Z,28.63
2018-01-15T02:08:43.834Z,28.73
2018-01-15T02:11:09.578Z,30.03
2018-01-15T02:13:35.332Z,30.10
2018-01-15T02:16:01.107Z,30.43
2018-01-15T02:18:26.845Z,31.17
2018-01-15T02:20:52.618Z,29.37
2018-01-15T02:23:18.362Z,29.67
2018-01-15T02:25:44.122Z,28.40
2018-01-15T02:28:09.870Z,28.70
2018-01-15T02:30:35.631Z,29.63
2018-01-15T02:33:01.384Z,27.50
2018-01-15T02:35:27.146Z,30.33
2018-01-15T02:37:52.906Z,28.27
2018-01-15T02:40:18.677Z,27.33
2018-01-15T02:42:44.426Z,29.90
2018-01-15T02:45:10.203Z,28.63
2018-01-15T02:47:35.968Z,28.50
2018-01-15T02:50:01.734Z,27.80
2018-01-15T02:52:27.489Z,29.47
2018-01-15T02:54:53.268Z,26.97
2018-01-15T02:57:19.015Z,29.20
2018-01-15T02:59:44.763Z,26.97
2018-01-15T03:02:10.531Z,27.27
2018-01-15T03:04:36.275Z,25.17
2018-01-15T03:07:02.062Z,26.53
2018-01-15T03:09:27.802Z,27.23
2018-01-15T03:11:53.564Z,29.50
2018-01-15T03:14:19.309Z,27.77
2018-01-15T03:16:45.086Z,28.23
2018-01-15T03:19:10.835Z,28.63
2018-01-15T03:21:36.605Z,29.90
2018-01-15T03:24:02.358Z,29.70
2018-01-15T03:26:28.118Z,27.73
2018-01-15T03:28:53.877Z,29.83
2018-01-15T03:31:19.632Z,30.87
2018-01-15T03:33:45.390Z,30.13
2018-01-15T03:36:11.146Z,30.67
2018-01-15T03:38:36.898Z,29.47
2018-01-15T03:41:02.665Z,28.67
2018-01-15T03:43:28.427Z,28.60
2018-01-15T03:45:54.183Z,26.67
2018-01-15T03:48:19.962Z,28.33
2018-01-15T03:50:45.714Z,30.77
2018-01-15T03:53:11.467Z,29.70
2018-01-15T03:55:37.223Z,30.23
2018-01-15T03:58:03.004Z,28.37
2018-01-15T04:00:28.751Z,26.07
2018-01-15T04:02:54.518Z,26.63
2018-01-15T04:05:20.270Z,29.33
2018-01-15T04:07:46.043Z,29.60
2018-01-15T04:10:11.792Z,27.47
2018-01-15T04:12:37.559Z,27.17
2018-01-15T04:15:03.344Z,28.70
2018-01-15T04:17:29.153Z,27.53
2018-01-15T04:19:54.896Z,26.90
2018-01-15T04:22:20.666Z,32.27
2018-01-15T04:24:46.421Z,31.10
2018-01-15T04:27:12.175Z,28.17
2018-01-15T04:29:37.933Z,28.70
2018-01-15T04:32:03.678Z,28.60
2018-01-15T04:34:29.438Z,26.50
2018-01-15T04:36:55.202Z,29.07
2018-01-15T04:39:20.978Z,29.47
2018-01-15T04:41:46.718Z,28.00
2018-01-15T04:44:12.486Z,30.17
2018-01-15T04:46:38.242Z,29.27
2018-01-15T04:49:04.017Z,29.23
2018-01-15T04:51:29.770Z,29.87
2018-01-15T04:53:55.530Z,29.77
2018-01-15T04:56:21.278Z,30.90
2018-01-15T04:58:47.057Z,30.83
2018-01-15T05:01:12.801Z,28.33
2018-01-15T05:03:38.551Z,28.67
2018-01-15T05:06:04.323Z,27.43
2018-01-15T05:08:30.066Z,29.10
2018-01-15T05:10:55.826Z,29.87
2018-01-15T05:13:21.569Z,27.87
2018-01-15T05:15:47.330Z,27.63
2018-01-15T05:18:13.085Z,26.73
2018-01-15T05:20:38.838Z,27.97
2018-01-15T05:23:04.594Z,30.63
2018-01-15T05:25:30.363Z,29.80
2018-01-15T05:27:56.118Z,28.70
2018-01-15T05:30:21.890Z,28.60
2018-01-15T05:32:47.645Z,28.50
2018-01-15T05:35:13.407Z,28.87
2018-01-15T05:37:39.154Z,26.37
2018-01-15T05:40:04.926Z,26.07
2018-01-15T05:42:30.738Z,29.53
2018-01-15T05:44:56.507Z,27.83
2018-01-15T05:47:22.263Z,27.03
2018-01-15T05:49:48.030Z,26.60
2018-01-15T05:52:13.790Z,28.77
2018-01-15T05:54:39.550Z,26.77
2018-01-15T05:57:05.333Z,27.43
2018-01-15T05:59:31.071Z,29.77
2018-01-15T06:01:56.827Z,26.30
2018-01-15T06:04:22.569Z,26.00
2018-01-15T06:06:48.341Z,28.00
2018-01-15T06:09:14.087Z,28.00
2018-01-15T06:11:39.842Z,28.07
2018-01-15T06:14:05.599Z,27.03
2018-01-15T06:16:31.350Z,24.67
2018-01-15T06:18:57.095Z,26.93
2018-01-15T06:21:22.853Z,26.90
2018-01-15T06:23:48.598Z,27.40
2018-01-15T06:26:14.358Z,26.90
2018-01-15T06:28:40.104Z,26.77
2018-01-15T06:31:05.866Z,28.57
2018-01-15T06:33:31.622Z,28.30
2018-01-15T06:35:57.358Z,30.13
2018-01-15T06:38:23.121Z,28.67
2018-01-15T06:40:48.874Z,29.70
2018-01-15T06:43:14.632Z,26.80
2018-01-15T06:45:40.382Z,27.93
2018-01-15T06:48:06.151Z,26.87
2018-01-15T06:50:31.895Z,29.53
2018-01-15T06:52:57.658Z,26.33
2018-01-15T06:55:23.414Z,28.00
2018-01-15T06:57:49.187Z,28.30
2018-01-15T07:00:14.936Z,27.43
2018-01-15T07:02:40.702Z,27.53
2018-01-15T07:05:06.464Z,28.70
2018-01-15T07:07:32.239Z,26.93
2018-01-15T07:09:57.993Z,27.20
2018-01-15T07:12:23.748Z,26.13
2018-01-15T07:14:49.518Z,27.00
2018-01-15T07:17:15.322Z,24.67
2018-01-15T07:19:41.040Z,24.33
2018-01-15T07:22:06.786Z,25.20
2018-01-15T07:24:32.555Z,24.97
2018-01-15T07:26:58.306Z,23.97
2018-01-15T07:29:24.070Z,25.33
2018-01-15T07:31:49.818Z,25.57
2018-01-15T07:36:45.931Z,25.62
2018-01-15T07:39:11.698Z,23.80
2018-01-15T07:41:37.453Z,24.50
2018-01-15T07:44:03.213Z,24.67
2018-01-15T07:46:28.971Z,24.17
2018-01-15T07:48:54.746Z,25.13
2018-01-15T07:51:20.508Z,25.47
2018-01-15T07:53:46.282Z,22.67
2018-01-15T07:56:12.028Z,22.97
2018-01-15T07:58:37.787Z,22.97
2018-01-15T08:01:03.553Z,23.83
2018-01-15T08:03:29.311Z,24.57
2018-01-15T08:05:55.077Z,24.67
2018-01-15T08:08:20.830Z,24.20
2018-01-15T08:10:46.594Z,24.10
2018-01-15T08:13:12.357Z,21.80
2018-01-15T08:15:38.126Z,21.83
2018-01-15T08:18:03.878Z,23.87
2018-01-15T08:20:29.646Z,23.10
2018-01-15T08:22:55.391Z,24.97
2018-01-15T08:25:21.155Z,25.63
2018-01-15T08:27:46.935Z,21.93
2018-01-15T08:30:12.683Z,20.70
2018-01-15T08:32:38.455Z,23.47
2018-01-15T08:35:04.228Z,22.13
2018-01-15T08:37:29.978Z,22.67
2018-01-15T08:39:55.743Z,21.57
2018-01-15T08:42:21.520Z,22.37
2018-01-15T08:44:47.287Z,21.33
2018-01-15T08:47:13.050Z,21.90
2018-01-15T08:49:38.819Z,21.73
2018-01-15T08:52:04.592Z,24.20
2018-01-15T08:54:30.352Z,20.57
2018-01-15T08:56:57.138Z,23.83
2018-01-15T08:59:22.903Z,21.27
2018-01-15T09:01:48.671Z,22.43
2018-01-15T09:04:14.418Z,19.90
2018-01-15T09:06:40.191Z,21.43
2018-01-15T09:09:12.942Z,19.77
2018-01-15T09:11:38.705Z,19.23
2018-01-15T09:14:04.451Z,19.83
2018-01-15T09:16:30.222Z,19.10
2018-01-15T09:18:55.966Z,19.23
2018-01-15T09:21:21.742Z,21.93
2018-01-15T09:23:47.499Z,19.90
2018-01-15T09:26:13.259Z,19.23
2018-01-15T09:28:39.016Z,21.00
2018-01-15T09:31:04.758Z,20.40
2018-01-15T09:33:30.510Z,21.70
2018-01-15T09:35:56.258Z,23.00
2018-01-15T09:38:22.027Z,20.30
2018-01-15T09:40:47.772Z,22.30
2018-01-15T09:43:13.542Z,22.07
2018-01-15T09:45:39.310Z,19.60
2018-01-15T09:48:05.071Z,19.63
2018-01-15T09:50:30.849Z,20.97
2018-01-15T09:52:56.617Z,19.23
2018-01-15T09:55:22.367Z,19.17
2018-01-15T09:57:48.142Z,19.50
2018-01-15T10:00:13.904Z,19.87
2018-01-15T10:02:39.666Z,19.17
2018-01-15T10:05:05.481Z,19.23
2018-01-15T10:07:31.195Z,19.40
2018-01-15T10:09:56.959Z,18.83
2018-01-15T10:12:22.709Z,18.43
2018-01-15T10:14:48.462Z,20.93
2018-01-15T10:17:14.214Z,20.50
2018-01-15T10:19:39.974Z,19.23
2018-01-15T10:22:05.747Z,17.70
2018-01-15T10:24:31.507Z,19.43
2018-01-15T10:26:57.275Z,18.53
2018-01-15T10:29:23.039Z,20.47
2018-01-15T10:31:48.786Z,20.10
2018-01-15T10:34:14.547Z,20.27
2018-01-15T10:36:40.303Z,20.50
2018-01-15T10:39:06.076Z,19.83
2018-01-15T10:41:31.837Z,20.03
2018-01-15T10:43:57.611Z,20.23
2018-01-15T10:46:23.362Z,19.73
2018-01-15T10:48:49.134Z,18.43
2018-01-15T10:51:14.906Z,18.57
2018-01-15T10:53:40.651Z,19.00
2018-01-15T10:56:06.422Z,18.67
2018-01-15T10:58:32.190Z,18.40
2018-01-15T11:00:57.966Z,17.80
2018-01-15T11:03:23.722Z,17.77
2018-01-15T11:05:49.486Z,19.20
2018-01-15T11:08:15.251Z,18.10
2018-01-15T11:10:41.014Z,16.87
2018-01-15T11:13:06.762Z,17.70
2018-01-15T11:15:32.530Z,19.87
2018-01-15T11:17:58.274Z,17.63
2018-01-15T11:20:24.040Z,17.90
2018-01-15T11:22:49.794Z,19.87
2018-01-15T11:25:15.565Z,17.43
2018-01-15T11:27:41.318Z,17.13
2018-01-15T11:30:07.102Z,17.97
2018-01-15T11:32:32.855Z,16.73
2018-01-15T11:34:58.630Z,16.10
2018-01-15T11:37:24.366Z,19.37
2018-01-15T11:39:50.159Z,17.00
2018-01-15T11:42:15.900Z,17.33
2018-01-15T11:44:41.655Z,16.97
2018-01-15T11:47:07.419Z,16.17
2018-01-15T11:49:33.171Z,16.73
2018-01-15T11:51:58.940Z,16.53
2018-01-15T11:54:24.698Z,16.30
2018-01-15T11:56:50.470Z,18.23
2018-01-15T11:59:16.218Z,17.20
2018-01-15T12:01:41.975Z,18.07
2018-01-15T12:04:07.726Z,17.17
2018-01-15T12:06:33.490Z,16.87
2018-01-15T12:08:59.238Z,17.43
2018-01-15T12:11:24.998Z,16.90
2018-01-15T12:13:50.742Z,16.83
2018-01-15T12:16:16.505Z,19.63
2018-01-15T12:18:42.262Z,19.20
2018-01-15T12:21:08.034Z,16.83
2018-01-15T12:23:33.777Z,17.00
2018-01-15T12:25:59.531Z,19.63
2018-01-15T12:28:25.291Z,17.13
2018-01-15T12:30:51.058Z,16.67
2018-01-15T12:33:16.822Z,16.77
2018-01-15T12:35:42.574Z,18.13
2018-01-15T12:38:09.134Z,17.85
2018-01-15T12:40:34.886Z,17.63
2018-01-15T12:43:00.650Z,17.77
2018-01-15T12:45:26.406Z,18.20
2018-01-15T12:47:52.172Z,18.40
2018-01-15T12:50:17.936Z,16.50
2018-01-15T12:52:43.703Z,16.20
2018-01-15T12:55:09.455Z,17.93
2018-01-15T12:57:35.211Z,19.33
2018-01-15T13:00:01.210Z,17.80
2018-01-15T13:04:59.421Z,17.42
2018-01-15T13:07:37.436Z,17.50
2018-01-15T13:10:03.202Z,17.33
2018-01-15T13:12:28.968Z,18.40
2018-01-15T13:14:54.738Z,17.33
2018-01-15T13:17:20.490Z,17.30
2018-01-15T13:19:46.254Z,16.80
2018-01-15T13:22:12.021Z,15.87
2018-01-15T13:24:37.783Z,16.30
2018-01-15T13:27:03.542Z,15.73
2018-01-15T13:29:29.316Z,16.77
2018-01-15T13:31:55.082Z,17.30
2018-01-15T13:34:20.851Z,17.40
2018-01-15T13:36:46.610Z,18.10
2018-01-15T13:39:12.363Z,17.87
2018-01-15T13:41:38.138Z,16.73
2018-01-15T13:44:03.894Z,16.90
2018-01-15T13:46:29.677Z,16.40
2018-01-15T13:48:55.458Z,17.43
2018-01-15T13:51:21.227Z,16.30
2018-01-15T13:53:46.979Z,16.83
2018-01-15T13:56:12.759Z,17.83
2018-01-15T13:58:38.515Z,17.63
2018-01-15T14:01:04.275Z,19.20
2018-01-15T14:03:30.034Z,16.23
2018-01-15T14:05:55.807Z,17.77
2018-01-15T14:08:21.554Z,17.20
2018-01-15T14:10:47.318Z,15.27
2018-01-15T14:13:13.067Z,16.50
2018-01-15T14:15:38.830Z,17.83
2018-01-15T14:18:04.578Z,17.07
2018-01-15T14:20:30.372Z,16.67
2018-01-15T14:22:56.101Z,16.83
2018-01-15T14:25:21.854Z,16.23
2018-01-15T14:27:47.619Z,20.07
2018-01-15T14:30:13.387Z,18.30
2018-01-15T14:32:39.151Z,18.03
2018-01-15T14:35:04.898Z,17.77
2018-01-15T14:37:30.662Z,17.83
2018-01-15T14:39:56.423Z,18.03
2018-01-15T14:42:22.194Z,18.93
2018-01-15T14:44:47.943Z,18.13
2018-01-15T14:47:13.699Z,17.57
2018-01-15T14:49:39.466Z,18.43
2018-01-15T14:52:05.234Z,17.07
2018-01-15T14:54:30.991Z,20.07
2018-01-15T14:56:56.750Z,18.87
2018-01-15T14:59:22.503Z,19.57
2018-01-15T15:01:48.270Z,21.27
2018-01-15T15:04:14.033Z,19.90
2018-01-15T15:06:39.813Z,17.77
2018-01-15T15:09:05.571Z,17.03
2018-01-15T15:11:31.334Z,18.23
2018-01-15T15:13:57.111Z,19.83
2018-01-15T15:16:22.890Z,17.93
2018-01-15T15:18:48.650Z,17.67
2018-01-15T15:21:14.399Z,17.67
2018-01-15T15:23:40.175Z,18.67
2018-01-15T15:26:05.929Z,17.77
2018-01-15T15:28:31.698Z,18.80
2018-01-15T15:30:57.445Z,18.83
2018-01-15T15:33:23.210Z,17.90
2018-01-15T15:35:49.011Z,18.50
2018-01-15T15:38:14.786Z,18.87
2018-01-15T15:40:40.538Z,19.20
2018-01-15T15:43:06.497Z,18.20
2018-01-15T15:45:32.267Z,18.67
2018-01-15T15:47:58.164Z,23.97
2018-01-15T15:50:23.945Z,18.93
2018-01-15T15:52:49.689Z,18.03
2018-01-15T15:55:15.574Z,20.63
2018-01-15T15:57:41.333Z,18.23
2018-01-15T16:00:07.098Z,18.30
2018-01-15T16:02:32.846Z,18.87
2018-01-15T16:04:58.612Z,17.40
2018-01-15T16:07:24.678Z,20.53
2018-01-15T16:09:50.450Z,19.75
2018-01-15T16:12:16.222Z,21.33
2018-01-15T16:14:41.982Z,19.73
2018-01-15T16:17:07.790Z,19.87
2018-01-15T16:19:33.546Z,20.00
2018-01-15T16:25:04.068Z,20.30
2018-01-15T16:27:29.814Z,19.03
2018-01-15T16:29:55.593Z,20.80
2018-01-15T16:32:21.354Z,19.30
2018-01-15T16:34:47.130Z,18.20
2018-01-15T16:37:12.878Z,18.20
2018-01-15T16:39:38.716Z,17.43
2018-01-15T16:42:04.476Z,20.50
2018-01-15T16:44:30.345Z,17.37
2018-01-15T16:46:56.107Z,19.67
2018-01-15T16:49:21.902Z,18.73
2018-01-15T16:51:47.701Z,17.67
2018-01-15T16:54:13.546Z,18.10
2018-01-15T16:56:39.298Z,20.03
2018-01-15T16:59:05.079Z,19.57
2018-01-15T17:01:30.975Z,17.57
2018-01-15T17:03:56.743Z,19.90
2018-01-15T17:06:22.634Z,19.80
2018-01-15T17:08:48.500Z,21.23
2018-01-15T17:11:14.546Z,22.40
2018-01-15T17:13:40.353Z,20.80
2018-01-15T17:16:06.191Z,19.37
2018-01-15T17:18:31.951Z,19.03
2018-01-15T17:20:57.727Z,18.83
2018-01-15T17:23:23.490Z,19.37
2018-01-15T17:25:49.283Z,23.77
2018-01-15T17:28:15.171Z,17.33
2018-01-15T17:30:41.019Z,20.73
2018-01-15T17:33:06.767Z,24.10
2018-01-15T17:35:32.537Z,22.63
2018-01-15T17:37:58.318Z,19.27
2018-01-15T17:40:24.061Z,21.17
2018-01-15T17:42:49.818Z,21.50
2018-01-15T17:45:15.605Z,20.67
2018-01-15T17:47:41.361Z,19.77
2018-01-15T17:50:07.119Z,20.87
2018-01-15T17:52:32.891Z,23.03
2018-01-15T17:54:58.650Z,21.57
2018-01-15T17:57:24.398Z,21.60
2018-01-15T17:59:50.189Z,22.53
2018-01-15T18:02:15.982Z,21.40
2018-01-15T18:04:41.763Z,22.50
2018-01-15T18:07:07.524Z,22.47
2018-01-15T18:09:33.282Z,23.70
2018-01-15T18:11:59.051Z,22.37
2018-01-15T18:14:24.927Z,24.23
2018-01-15T18:16:50.697Z,24.13
2018-01-15T18:19:16.471Z,22.80
2018-01-15T18:21:42.381Z,23.77
2018-01-15T18:24:08.146Z,24.97
2018-01-15T18:26:33.910Z,25.80
2018-01-15T18:28:59.674Z,23.63
2018-01-15T18:31:25.473Z,25.10
2018-01-15T18:33:51.234Z,25.70
2018-01-15T18:36:17.022Z,27.07
2018-01-15T18:38:42.799Z,26.40
2018-01-15T18:41:08.554Z,25.60
2018-01-15T18:43:34.368Z,27.20
2018-01-15T18:46:00.086Z,26.63
2018-01-15T18:48:25.849Z,26.83
2018-01-15T18:50:51.609Z,25.77
2018-01-15T18:53:17.378Z,21.73
2018-01-15T18:55:43.139Z,24.20
2018-01-15T18:58:08.951Z,25.60
2018-01-15T19:00:34.710Z,28.07
2018-01-15T19:03:00.510Z,25.97
2018-01-15T19:05:26.249Z,24.57
2018-01-15T19:07:52.007Z,24.07
2018-01-15T19:10:17.773Z,25.97
2018-01-15T19:12:43.542Z,24.73
2018-01-15T19:15:09.318Z,24.73
2018-01-15T19:17:35.070Z,27.50
2018-01-15T19:20:00.838Z,25.03
2018-01-15T19:22:26.606Z,25.70
2018-01-15T19:24:52.374Z,27.97
2018-01-15T19:27:18.144Z,26.17
2018-01-15T19:29:43.926Z,26.27
2018-01-15T19:32:09.695Z,24.63
2018-01-15T19:34:41.519Z,27.30
2018-01-15T19:37:07.295Z,27.02
2018-01-15T19:39:33.083Z,27.83
2018-01-15T19:41:58.881Z,26.37
2018-01-15T19:47:32.535Z,32.88
2018-01-15T19:50:04.410Z,23.70
2018-01-15T19:52:36.292Z,31.60
2018-01-15T19:55:08.162Z,31.27
2018-01-15T19:57:39.970Z,30.45
2018-01-15T20:00:11.851Z,31.55
2018-01-15T20:02:43.605Z,25.42
2018-01-15T20:05:15.419Z,28.25
2018-01-15T20:07:47.218Z,28.77
2018-01-15T20:13:14.486Z,28.35
2018-01-15T20:15:40.266Z,31.73
2018-01-15T20:18:06.018Z,25.87
2018-01-15T20:20:31.786Z,26.60
2018-01-15T20:22:57.602Z,25.30
2018-01-15T20:25:23.362Z,28.07
2018-01-15T20:27:49.385Z,27.57
2018-01-15T20:30:15.159Z,24.60
2018-01-15T20:32:40.979Z,26.57
2018-01-15T20:35:06.730Z,24.63
2018-01-15T20:37:32.502Z,23.67
2018-01-15T20:39:58.259Z,27.47
2018-01-15T20:42:24.016Z,30.20
2018-01-15T20:44:49.909Z,25.33
2018-01-15T20:47:15.682Z,28.10
2018-01-15T20:49:41.446Z,26.50
2018-01-15T20:52:07.209Z,27.33
2018-01-15T20:54:33.109Z,28.90
2018-01-15T20:56:58.854Z,28.43
2018-01-15T20:59:24.666Z,25.90
2018-01-15T21:01:50.443Z,28.30
2018-01-15T21:04:16.197Z,31.33
2018-01-15T21:06:41.966Z,23.70
2018-01-15T21:09:07.718Z,28.57
2018-01-15T21:11:33.477Z,22.13
2018-01-15T21:13:59.247Z,24.93
2018-01-15T21:16:24.997Z,24.93
2018-01-15T21:18:50.838Z,25.10
2018-01-15T21:21:16.620Z,22.40
2018-01-15T21:23:42.400Z,21.77
2018-01-15T21:26:08.155Z,25.00
2018-01-15T21:28:33.931Z,20.67
2018-01-15T21:30:59.673Z,23.90
2018-01-15T21:33:25.442Z,19.07
2018-01-15T21:35:51.182Z,22.30
2018-01-15T21:38:16.939Z,19.23
2018-01-15T21:40:42.699Z,19.80
2018-01-15T21:43:08.769Z,18.47
2018-01-15T21:45:34.542Z,25.73
2018-01-15T21:48:00.328Z,21.53
2018-01-15T21:50:26.415Z,25.80
2018-01-15T21:52:52.389Z,24.37
2018-01-15T21:55:18.150Z,19.37
2018-01-15T21:57:43.918Z,23.70
2018-01-15T22:00:09.702Z,17.47
2018-01-15T22:02:35.463Z,21.57
2018-01-15T22:05:01.239Z,19.70
2018-01-15T22:07:26.979Z,19.00
2018-01-15T22:09:52.746Z,17.53
2018-01-15T22:12:18.590Z,19.23
2018-01-15T22:14:44.369Z,20.60
2018-01-15T22:17:10.508Z,20.43
2018-01-15T22:19:36.279Z,18.98
2018-01-15T22:22:02.371Z,21.23
2018-01-15T22:24:28.171Z,20.58
2018-01-15T22:26:53.998Z,20.83
2018-01-15T22:29:19.769Z,17.50
2018-01-15T22:31:45.523Z,17.53
2018-01-15T22:34:11.283Z,19.33
2018-01-15T22:36:37.060Z,18.13
2018-01-15T22:39:02.813Z,14.67
2018-01-15T22:41:28.590Z,17.30
2018-01-15T22:43:54.353Z,19.83
2018-01-15T22:46:20.124Z,18.47
2018-01-15T22:48:45.896Z,19.37
2018-01-15T22:51:11.650Z,17.73
2018-01-15T22:53:37.397Z,15.63
2018-01-15T22:56:03.173Z,17.43
2018-01-15T22:58:28.922Z,18.87
2018-01-15T23:00:54.695Z,16.37
2018-01-15T23:03:20.456Z,16.80
2018-01-15T23:05:46.231Z,21.13
2018-01-15T23:08:11.973Z,21.33
2018-01-15T23:10:37.729Z,19.17
2018-01-15T23:13:03.550Z,19.77
2018-01-15T23:15:29.373Z,16.40
2018-01-15T23:17:55.161Z,17.03
2018-01-15T23:20:20.918Z,15.97
2018-01-15T23:22:46.696Z,16.47
2018-01-15T23:25:12.430Z,16.07
2018-01-15T23:27:38.266Z,18.07
2018-01-15T23:30:04.007Z,16.73
2018-01-15T23:32:29.772Z,15.90
2018-01-15T23:34:55.524Z,16.47
2018-01-15T23:37:21.290Z,16.77
2018-01-15T23:39:47.043Z,15.67
2018-01-15T23:42:13.015Z,15.33
2018-01-15T23:44:38.787Z,15.00
2018-01-15T23:47:04.555Z,18.77
2018-01-15T23:49:30.321Z,12.77
2018-01-15T23:51:56.074Z,16.57
2018-01-15T23:54:31.971Z,18.87
2018-01-15T23:56:57.712Z,15.70
2018-01-15T23:59:23.457Z,14.53
